sensor_id;sensor_type;location;lat;lon;timestamp;temperature;humidity
10905;DHT22;5505;51.450;9.254;2022-09-21T00:01:56;6.90;99.90
10905;DHT22;5505;51.450;9.254;2022-09-21T00:04:43;6.90;99.90
10905;DHT22;5505;51.450;9.254;2022-09-21T00:07:31;7.10;99.90
10905;DHT22;5505;51.450;9.254;2022-09-21T00:10:18;7.90;99.90
10905;DHT22;5505;51.450;9.254;2022-09-21T00:13:05;6.90;99.90
10905;DHT22;5505;51.450;9.254;2022-09-21T00:15:53;6.80;99.90
10905;DHT22;5505;51.450;9.254;2022-09-21T00:18:40;6.80;99.90
10905;DHT22;5505;51.450;9.254;2022-09-21T00:21:27;6.70;99.90
10905;DHT22;5505;51.450;9.254;2022-09-21T00:24:16;6.60;99.90
10905;DHT22;5505;51.450;9.254;2022-09-21T00:27:03;6.60;99.90
10905;DHT22;5505;51.450;9.254;2022-09-21T00:29:50;6.60;99.90
10905;DHT22;5505;51.450;9.254;2022-09-21T00:32:37;6.60;99.90
10905;DHT22;5505;51.450;9.254;2022-09-21T00:35:24;6.60;99.90
10905;DHT22;5505;51.450;9.254;2022-09-21T00:38:11;6.60;99.90
10905;DHT22;5505;51.450;9.254;2022-09-21T00:40:59;6.60;99.90
10905;DHT22;5505;51.450;9.254;2022-09-21T00:43:47;6.60;99.90
10905;DHT22;5505;51.450;9.254;2022-09-21T00:46:36;6.60;99.90
10905;DHT22;5505;51.450;9.254;2022-09-21T00:49:26;6.50;99.90
10905;DHT22;5505;51.450;9.254;2022-09-21T00:52:13;6.70;99.90
10905;DHT22;5505;51.450;9.254;2022-09-21T00:55:05;6.50;99.90
10905;DHT22;5505;51.450;9.254;2022-09-21T00:57:56;6.50;99.90
10905;DHT22;5505;51.450;9.254;2022-09-21T01:00:45;6.50;99.90
10905;DHT22;5505;51.450;9.254;2022-09-21T01:03:33;6.80;99.90
10905;DHT22;5505;51.450;9.254;2022-09-21T01:06:20;6.50;99.90
10905;DHT22;5505;51.450;9.254;2022-09-21T01:09:07;7.80;99.90
10905;DHT22;5505;51.450;9.254;2022-09-21T01:12:06;6.40;99.90
10905;DHT22;5505;51.450;9.254;2022-09-21T01:18:12;6.40;99.90
10905;DHT22;5505;51.450;9.254;2022-09-21T01:21:17;7.30;99.90
10905;DHT22;5505;51.450;9.254;2022-09-21T01:24:14;6.40;99.90
10905;DHT22;5505;51.450;9.254;2022-09-21T01:27:32;6.80;99.90
10905;DHT22;5505;51.450;9.254;2022-09-21T01:30:29;6.20;99.90
10905;DHT22;5505;51.450;9.254;2022-09-21T01:33:24;6.10;99.90
10905;DHT22;5505;51.450;9.254;2022-09-21T01:36:13;6.00;99.90
10905;DHT22;5505;51.450;9.254;2022-09-21T01:39:06;6.00;99.90
10905;DHT22;5505;51.450;9.254;2022-09-21T01:41:54;6.00;99.90
10905;DHT22;5505;51.450;9.254;2022-09-21T01:44:43;4.80;99.90
10905;DHT22;5505;51.450;9.254;2022-09-21T01:47:35;5.90;99.90
10905;DHT22;5505;51.450;9.254;2022-09-21T01:50:24;6.30;99.90
10905;DHT22;5505;51.450;9.254;2022-09-21T01:53:16;5.70;99.90
10905;DHT22;5505;51.450;9.254;2022-09-21T01:56:09;5.70;99.90
10905;DHT22;5505;51.450;9.254;2022-09-21T01:59:02;5.60;99.90
10905;DHT22;5505;51.450;9.254;2022-09-21T02:01:56;5.70;99.90
10905;DHT22;5505;51.450;9.254;2022-09-21T02:04:45;5.70;99.90
10905;DHT22;5505;51.450;9.254;2022-09-21T02:07:33;5.60;99.90
10905;DHT22;5505;51.450;9.254;2022-09-21T02:10:23;3.40;99.90
10905;DHT22;5505;51.450;9.254;2022-09-21T02:13:14;7.10;99.90
10905;DHT22;5505;51.450;9.254;2022-09-21T02:16:12;5.60;99.90
10905;DHT22;5505;51.450;9.254;2022-09-21T02:19:10;5.90;99.90
10905;DHT22;5505;51.450;9.254;2022-09-21T02:22:02;5.60;99.90
10905;DHT22;5505;51.450;9.254;2022-09-21T02:24:54;5.60;99.90
10905;DHT22;5505;51.450;9.254;2022-09-21T02:27:49;5.60;99.90
10905;DHT22;5505;51.450;9.254;2022-09-21T02:30:37;6.40;99.90
10905;DHT22;5505;51.450;9.254;2022-09-21T02:33:29;6.30;99.90
10905;DHT22;5505;51.450;9.254;2022-09-21T02:36:20;5.50;99.90
10905;DHT22;5505;51.450;9.254;2022-09-21T02:39:11;5.50;99.90
10905;DHT22;5505;51.450;9.254;2022-09-21T02:42:05;5.50;99.90
10905;DHT22;5505;51.450;9.254;2022-09-21T02:44:57;5.40;99.90
10905;DHT22;5505;51.450;9.254;2022-09-21T02:47:52;5.30;99.90
10905;DHT22;5505;51.450;9.254;2022-09-21T02:50:45;5.20;99.90
10905;DHT22;5505;51.450;9.254;2022-09-21T02:53:35;5.30;99.90
10905;DHT22;5505;51.450;9.254;2022-09-21T02:56:25;4.50;99.90
10905;DHT22;5505;51.450;9.254;2022-09-21T02:59:13;5.30;99.90
10905;DHT22;5505;51.450;9.254;2022-09-21T03:02:01;5.20;99.90
10905;DHT22;5505;51.450;9.254;2022-09-21T03:04:48;5.90;99.90
10905;DHT22;5505;51.450;9.254;2022-09-21T03:07:35;5.10;99.90
10905;DHT22;5505;51.450;9.254;2022-09-21T03:10:22;5.10;99.90
10905;DHT22;5505;51.450;9.254;2022-09-21T03:13:11;5.10;99.90
10905;DHT22;5505;51.450;9.254;2022-09-21T03:15:59;5.10;99.90
10905;DHT22;5505;51.450;9.254;2022-09-21T03:18:47;5.10;99.90
10905;DHT22;5505;51.450;9.254;2022-09-21T03:21:33;5.10;99.90
10905;DHT22;5505;51.450;9.254;2022-09-21T03:24:20;5.10;99.90
10905;DHT22;5505;51.450;9.254;2022-09-21T03:27:21;5.00;99.90
10905;DHT22;5505;51.450;9.254;2022-09-21T03:30:11;4.90;99.90
10905;DHT22;5505;51.450;9.254;2022-09-21T03:32:58;4.90;99.90
10905;DHT22;5505;51.450;9.254;2022-09-21T03:35:47;4.90;99.90
10905;DHT22;5505;51.450;9.254;2022-09-21T03:38:34;4.80;99.90
10905;DHT22;5505;51.450;9.254;2022-09-21T03:41:22;4.70;99.90
10905;DHT22;5505;51.450;9.254;2022-09-21T03:44:09;4.70;99.90
10905;DHT22;5505;51.450;9.254;2022-09-21T03:46:57;4.60;99.90
10905;DHT22;5505;51.450;9.254;2022-09-21T03:49:44;4.60;99.90
10905;DHT22;5505;51.450;9.254;2022-09-21T03:52:31;4.60;99.90
10905;DHT22;5505;51.450;9.254;2022-09-21T03:55:17;4.60;99.90
10905;DHT22;5505;51.450;9.254;2022-09-21T03:58:05;4.60;99.90
10905;DHT22;5505;51.450;9.254;2022-09-21T04:00:52;4.60;99.90
10905;DHT22;5505;51.450;9.254;2022-09-21T04:03:40;4.50;99.90
10905;DHT22;5505;51.450;9.254;2022-09-21T04:06:27;6.90;99.90
10905;DHT22;5505;51.450;9.254;2022-09-21T04:09:17;4.50;99.90
10905;DHT22;5505;51.450;9.254;2022-09-21T04:12:04;5.50;99.90
10905;DHT22;5505;51.450;9.254;2022-09-21T04:14:51;4.50;99.90
10905;DHT22;5505;51.450;9.254;2022-09-21T04:17:38;4.50;99.90
10905;DHT22;5505;51.450;9.254;2022-09-21T04:20:26;4.50;99.90
10905;DHT22;5505;51.450;9.254;2022-09-21T04:23:13;4.40;99.90
10905;DHT22;5505;51.450;9.254;2022-09-21T04:26:01;4.40;99.90
10905;DHT22;5505;51.450;9.254;2022-09-21T04:28:48;4.40;99.90
10905;DHT22;5505;51.450;9.254;2022-09-21T04:31:35;4.40;99.90
10905;DHT22;5505;51.450;9.254;2022-09-21T04:34:22;4.40;99.90
10905;DHT22;5505;51.450;9.254;2022-09-21T04:37:10;4.40;99.90
10905;DHT22;5505;51.450;9.254;2022-09-21T04:39:57;4.40;99.90
10905;DHT22;5505;51.450;9.254;2022-09-21T04:42:43;5.70;99.90
10905;DHT22;5505;51.450;9.254;2022-09-21T04:45:35;4.40;99.90
10905;DHT22;5505;51.450;9.254;2022-09-21T04:48:22;4.40;99.90
10905;DHT22;5505;51.450;9.254;2022-09-21T04:51:10;4.40;99.90
10905;DHT22;5505;51.450;9.254;2022-09-21T04:53:59;4.70;99.90
10905;DHT22;5505;51.450;9.254;2022-09-21T04:56:45;4.50;99.90
10905;DHT22;5505;51.450;9.254;2022-09-21T04:59:32;4.40;99.90
10905;DHT22;5505;51.450;9.254;2022-09-21T05:02:19;4.30;99.90
10905;DHT22;5505;51.450;9.254;2022-09-21T05:05:06;4.30;99.90
10905;DHT22;5505;51.450;9.254;2022-09-21T05:07:53;4.80;99.90
10905;DHT22;5505;51.450;9.254;2022-09-21T05:10:42;4.20;99.90
10905;DHT22;5505;51.450;9.254;2022-09-21T05:13:28;4.20;99.90
10905;DHT22;5505;51.450;9.254;2022-09-21T05:16:15;4.10;99.90
10905;DHT22;5505;51.450;9.254;2022-09-21T05:19:02;5.10;99.90
10905;DHT22;5505;51.450;9.254;2022-09-21T05:21:49;4.10;99.90
10905;DHT22;5505;51.450;9.254;2022-09-21T05:24:36;4.10;99.90
10905;DHT22;5505;51.450;9.254;2022-09-21T05:27:24;4.10;99.90
10905;DHT22;5505;51.450;9.254;2022-09-21T05:30:12;4.00;99.90
10905;DHT22;5505;51.450;9.254;2022-09-21T05:33:01;4.10;99.90
10905;DHT22;5505;51.450;9.254;2022-09-21T05:35:57;4.00;99.90
10905;DHT22;5505;51.450;9.254;2022-09-21T05:38:45;4.00;99.90
10905;DHT22;5505;51.450;9.254;2022-09-21T05:41:32;4.00;99.90
10905;DHT22;5505;51.450;9.254;2022-09-21T05:44:21;4.00;99.90
10905;DHT22;5505;51.450;9.254;2022-09-21T05:47:17;3.90;99.90
10905;DHT22;5505;51.450;9.254;2022-09-21T05:50:24;4.30;99.90
10905;DHT22;5505;51.450;9.254;2022-09-21T05:53:26;4.10;99.90
10905;DHT22;5505;51.450;9.254;2022-09-21T05:56:23;4.00;99.90
10905;DHT22;5505;51.450;9.254;2022-09-21T05:59:35;4.40;99.90
10905;DHT22;5505;51.450;9.254;2022-09-21T06:02:41;4.10;99.90
10905;DHT22;5505;51.450;9.254;2022-09-21T06:05:30;4.20;99.90
10905;DHT22;5505;51.450;9.254;2022-09-21T06:08:17;4.60;99.90
10905;DHT22;5505;51.450;9.254;2022-09-21T06:11:04;4.30;99.90
10905;DHT22;5505;51.450;9.254;2022-09-21T06:13:51;4.30;99.90
10905;DHT22;5505;51.450;9.254;2022-09-21T06:16:41;4.40;99.90
10905;DHT22;5505;51.450;9.254;2022-09-21T06:19:28;4.80;99.90
10905;DHT22;5505;51.450;9.254;2022-09-21T06:22:15;4.50;99.90
10905;DHT22;5505;51.450;9.254;2022-09-21T06:25:02;4.50;99.90
10905;DHT22;5505;51.450;9.254;2022-09-21T06:27:49;4.60;99.90
10905;DHT22;5505;51.450;9.254;2022-09-21T06:30:36;4.60;99.90
10905;DHT22;5505;51.450;9.254;2022-09-21T06:33:25;4.60;99.90
10905;DHT22;5505;51.450;9.254;2022-09-21T06:36:13;4.60;99.90
10905;DHT22;5505;51.450;9.254;2022-09-21T06:39:00;4.70;99.90
10905;DHT22;5505;51.450;9.254;2022-09-21T06:41:47;4.70;99.90
10905;DHT22;5505;51.450;9.254;2022-09-21T06:44:34;4.80;99.90
10905;DHT22;5505;51.450;9.254;2022-09-21T06:47:21;5.00;99.90
10905;DHT22;5505;51.450;9.254;2022-09-21T06:50:09;5.40;99.90
10905;DHT22;5505;51.450;9.254;2022-09-21T06:52:59;5.00;99.90
10905;DHT22;5505;51.450;9.254;2022-09-21T06:55:47;5.50;99.90
10905;DHT22;5505;51.450;9.254;2022-09-21T06:58:34;5.10;99.90
10905;DHT22;5505;51.450;9.254;2022-09-21T07:01:22;5.20;99.90
10905;DHT22;5505;51.450;9.254;2022-09-21T07:04:09;5.30;99.90
10905;DHT22;5505;51.450;9.254;2022-09-21T07:06:57;5.30;99.90
10905;DHT22;5505;51.450;9.254;2022-09-21T07:09:44;5.30;99.90
10905;DHT22;5505;51.450;9.254;2022-09-21T07:12:30;5.30;99.90
10905;DHT22;5505;51.450;9.254;2022-09-21T07:15:19;5.30;99.90
10905;DHT22;5505;51.450;9.254;2022-09-21T07:18:11;6.60;99.90
10905;DHT22;5505;51.450;9.254;2022-09-21T07:21:01;5.30;99.90
10905;DHT22;5505;51.450;9.254;2022-09-21T07:23:50;5.40;99.90
10905;DHT22;5505;51.450;9.254;2022-09-21T07:26:36;5.50;99.90
10905;DHT22;5505;51.450;9.254;2022-09-21T07:29:23;5.70;99.90
10905;DHT22;5505;51.450;9.254;2022-09-21T07:32:11;5.90;99.90
10905;DHT22;5505;51.450;9.254;2022-09-21T07:34:58;6.10;99.90
10905;DHT22;5505;51.450;9.254;2022-09-21T07:37:45;8.60;99.90
10905;DHT22;5505;51.450;9.254;2022-09-21T07:40:34;7.80;99.90
10905;DHT22;5505;51.450;9.254;2022-09-21T07:43:20;6.60;99.90
10905;DHT22;5505;51.450;9.254;2022-09-21T07:46:09;6.80;99.90
10905;DHT22;5505;51.450;9.254;2022-09-21T07:48:56;7.10;99.90
10905;DHT22;5505;51.450;9.254;2022-09-21T07:51:43;8.30;99.90
10905;DHT22;5505;51.450;9.254;2022-09-21T07:54:30;7.60;99.90
10905;DHT22;5505;51.450;9.254;2022-09-21T07:57:19;7.80;99.90
10905;DHT22;5505;51.450;9.254;2022-09-21T08:00:23;7.80;99.90
10905;DHT22;5505;51.450;9.254;2022-09-21T08:03:13;7.80;99.90
10905;DHT22;5505;51.450;9.254;2022-09-21T08:06:00;7.90;99.90
10905;DHT22;5505;51.450;9.254;2022-09-21T08:08:49;7.90;99.90
10905;DHT22;5505;51.450;9.254;2022-09-21T08:11:36;7.90;99.90
10905;DHT22;5505;51.450;9.254;2022-09-21T08:14:24;7.70;99.90
10905;DHT22;5505;51.450;9.254;2022-09-21T08:17:11;7.60;99.90
10905;DHT22;5505;51.450;9.254;2022-09-21T08:19:58;7.50;99.90
10905;DHT22;5505;51.450;9.254;2022-09-21T08:22:45;7.60;99.90
10905;DHT22;5505;51.450;9.254;2022-09-21T08:25:32;7.80;99.90
10905;DHT22;5505;51.450;9.254;2022-09-21T08:28:20;8.80;99.90
10905;DHT22;5505;51.450;9.254;2022-09-21T08:31:09;7.90;99.90
10905;DHT22;5505;51.450;9.254;2022-09-21T08:33:56;9.70;99.90
10905;DHT22;5505;51.450;9.254;2022-09-21T08:36:43;8.00;99.90
10905;DHT22;5505;51.450;9.254;2022-09-21T08:39:30;9.10;99.90
10905;DHT22;5505;51.450;9.254;2022-09-21T08:42:35;8.30;99.90
10905;DHT22;5505;51.450;9.254;2022-09-21T08:45:28;8.50;99.90
10905;DHT22;5505;51.450;9.254;2022-09-21T08:48:22;8.80;99.90
10905;DHT22;5505;51.450;9.254;2022-09-21T08:51:11;9.10;99.90
10905;DHT22;5505;51.450;9.254;2022-09-21T08:54:05;9.30;99.90
10905;DHT22;5505;51.450;9.254;2022-09-21T08:56:53;9.60;99.90
10905;DHT22;5505;51.450;9.254;2022-09-21T08:59:43;9.70;99.90
10905;DHT22;5505;51.450;9.254;2022-09-21T09:02:42;9.90;99.90
10905;DHT22;5505;51.450;9.254;2022-09-21T09:05:41;10.10;99.90
10905;DHT22;5505;51.450;9.254;2022-09-21T09:08:49;10.20;99.90
10905;DHT22;5505;51.450;9.254;2022-09-21T09:11:51;10.40;99.90
10905;DHT22;5505;51.450;9.254;2022-09-21T09:15:05;10.60;99.90
10905;DHT22;5505;51.450;9.254;2022-09-21T09:17:57;10.70;99.90
10905;DHT22;5505;51.450;9.254;2022-09-21T09:20:51;10.90;99.90
10905;DHT22;5505;51.450;9.254;2022-09-21T09:23:42;11.00;99.90
10905;DHT22;5505;51.450;9.254;2022-09-21T09:26:32;11.10;99.90
10905;DHT22;5505;51.450;9.254;2022-09-21T09:29:27;11.30;99.90
10905;DHT22;5505;51.450;9.254;2022-09-21T09:32:16;11.50;99.90
10905;DHT22;5505;51.450;9.254;2022-09-21T09:35:12;11.60;99.90
10905;DHT22;5505;51.450;9.254;2022-09-21T09:38:08;11.80;99.90
10905;DHT22;5505;51.450;9.254;2022-09-21T09:41:13;13.20;99.90
10905;DHT22;5505;51.450;9.254;2022-09-21T09:44:14;12.00;99.90
10905;DHT22;5505;51.450;9.254;2022-09-21T09:47:14;12.30;99.90
10905;DHT22;5505;51.450;9.254;2022-09-21T09:50:08;12.30;99.90
10905;DHT22;5505;51.450;9.254;2022-09-21T09:53:00;12.50;99.90
10905;DHT22;5505;51.450;9.254;2022-09-21T09:55:52;12.70;99.90
10905;DHT22;5505;51.450;9.254;2022-09-21T09:58:43;12.80;99.90
10905;DHT22;5505;51.450;9.254;2022-09-21T10:01:37;13.00;99.90
10905;DHT22;5505;51.450;9.254;2022-09-21T10:04:24;13.00;99.90
10905;DHT22;5505;51.450;9.254;2022-09-21T10:07:17;13.10;99.90
10905;DHT22;5505;51.450;9.254;2022-09-21T10:10:33;13.20;99.90
10905;DHT22;5505;51.450;9.254;2022-09-21T10:13:27;13.30;99.90
10905;DHT22;5505;51.450;9.254;2022-09-21T10:16:18;13.50;99.90
10905;DHT22;5505;51.450;9.254;2022-09-21T10:19:13;13.70;99.90
10905;DHT22;5505;51.450;9.254;2022-09-21T10:22:03;13.80;99.90
10905;DHT22;5505;51.450;9.254;2022-09-21T10:24:51;13.80;99.90
10905;DHT22;5505;51.450;9.254;2022-09-21T10:27:42;13.80;99.90
10905;DHT22;5505;51.450;9.254;2022-09-21T10:30:34;14.90;99.90
10905;DHT22;5505;51.450;9.254;2022-09-21T10:33:23;14.00;99.90
10905;DHT22;5505;51.450;9.254;2022-09-21T10:36:27;14.00;99.90
10905;DHT22;5505;51.450;9.254;2022-09-21T10:39:20;14.10;99.90
10905;DHT22;5505;51.450;9.254;2022-09-21T10:42:12;14.10;99.90
10905;DHT22;5505;51.450;9.254;2022-09-21T10:45:06;14.10;99.90
10905;DHT22;5505;51.450;9.254;2022-09-21T10:48:08;14.10;99.90
10905;DHT22;5505;51.450;9.254;2022-09-21T10:50:57;14.10;99.90
10905;DHT22;5505;51.450;9.254;2022-09-21T10:53:47;14.20;99.90
10905;DHT22;5505;51.450;9.254;2022-09-21T10:56:34;14.20;99.90
10905;DHT22;5505;51.450;9.254;2022-09-21T10:59:24;14.20;99.90
10905;DHT22;5505;51.450;9.254;2022-09-21T11:02:27;14.30;99.90
10905;DHT22;5505;51.450;9.254;2022-09-21T11:05:22;14.30;99.90
10905;DHT22;5505;51.450;9.254;2022-09-21T11:08:14;14.20;99.90
10905;DHT22;5505;51.450;9.254;2022-09-21T11:14:21;14.00;99.90
10905;DHT22;5505;51.450;9.254;2022-09-21T11:17:16;14.00;99.90
10905;DHT22;5505;51.450;9.254;2022-09-21T11:20:18;14.50;99.90
10905;DHT22;5505;51.450;9.254;2022-09-21T11:23:17;14.30;99.90
10905;DHT22;5505;51.450;9.254;2022-09-21T11:26:14;14.10;99.90
10905;DHT22;5505;51.450;9.254;2022-09-21T11:29:07;14.10;99.90
10905;DHT22;5505;51.450;9.254;2022-09-21T11:32:06;14.10;99.90
10905;DHT22;5505;51.450;9.254;2022-09-21T11:35:23;13.90;99.90
10905;DHT22;5505;51.450;9.254;2022-09-21T11:38:19;13.80;99.90
10905;DHT22;5505;51.450;9.254;2022-09-21T11:41:26;14.00;99.90
10905;DHT22;5505;51.450;9.254;2022-09-21T11:44:36;14.10;99.90
10905;DHT22;5505;51.450;9.254;2022-09-21T11:47:46;14.30;99.90
10905;DHT22;5505;51.450;9.254;2022-09-21T11:50:48;14.40;99.90
10905;DHT22;5505;51.450;9.254;2022-09-21T11:53:49;14.40;99.90
10905;DHT22;5505;51.450;9.254;2022-09-21T11:56:44;14.40;99.90
10905;DHT22;5505;51.450;9.254;2022-09-21T11:59:42;14.40;99.90
10905;DHT22;5505;51.450;9.254;2022-09-21T12:06:12;15.40;99.90
10905;DHT22;5505;51.450;9.254;2022-09-21T12:09:27;14.60;99.90
10905;DHT22;5505;51.450;9.254;2022-09-21T12:12:20;14.70;99.90
10905;DHT22;5505;51.450;9.254;2022-09-21T12:15:11;14.60;99.90
10905;DHT22;5505;51.450;9.254;2022-09-21T12:18:04;14.60;99.90
10905;DHT22;5505;51.450;9.254;2022-09-21T12:20:57;14.50;99.90
10905;DHT22;5505;51.450;9.254;2022-09-21T12:23:50;15.20;99.90
10905;DHT22;5505;51.450;9.254;2022-09-21T12:26:41;14.60;99.90
10905;DHT22;5505;51.450;9.254;2022-09-21T12:29:33;14.60;99.90
10905;DHT22;5505;51.450;9.254;2022-09-21T12:32:27;14.60;99.90
10905;DHT22;5505;51.450;9.254;2022-09-21T12:35:23;14.60;99.90
10905;DHT22;5505;51.450;9.254;2022-09-21T12:38:13;14.30;99.90
10905;DHT22;5505;51.450;9.254;2022-09-21T12:41:09;14.10;99.90
10905;DHT22;5505;51.450;9.254;2022-09-21T12:44:09;14.10;99.90
10905;DHT22;5505;51.450;9.254;2022-09-21T12:47:02;14.00;99.90
10905;DHT22;5505;51.450;9.254;2022-09-21T12:49:57;13.90;99.90
10905;DHT22;5505;51.450;9.254;2022-09-21T12:52:45;13.80;99.90
10905;DHT22;5505;51.450;9.254;2022-09-21T12:55:39;13.70;99.90
10905;DHT22;5505;51.450;9.254;2022-09-21T12:58:47;14.20;99.90
10905;DHT22;5505;51.450;9.254;2022-09-21T13:01:41;13.60;99.90
10905;DHT22;5505;51.450;9.254;2022-09-21T13:04:39;13.50;99.90
10905;DHT22;5505;51.450;9.254;2022-09-21T13:07:59;13.50;99.90
10905;DHT22;5505;51.450;9.254;2022-09-21T13:11:00;13.40;99.90
10905;DHT22;5505;51.450;9.254;2022-09-21T13:13:52;13.40;99.90
10905;DHT22;5505;51.450;9.254;2022-09-21T13:16:41;13.40;99.90
10905;DHT22;5505;51.450;9.254;2022-09-21T13:19:30;13.50;99.90
10905;DHT22;5505;51.450;9.254;2022-09-21T13:22:22;13.50;99.90
10905;DHT22;5505;51.450;9.254;2022-09-21T13:25:19;13.60;99.90
10905;DHT22;5505;51.450;9.254;2022-09-21T13:28:18;13.80;99.90
10905;DHT22;5505;51.450;9.254;2022-09-21T13:31:52;14.00;99.90
10905;DHT22;5505;51.450;9.254;2022-09-21T13:34:42;14.00;99.90
10905;DHT22;5505;51.450;9.254;2022-09-21T13:37:29;14.10;99.90
10905;DHT22;5505;51.450;9.254;2022-09-21T13:40:37;14.20;99.90
10905;DHT22;5505;51.450;9.254;2022-09-21T13:43:46;14.20;99.90
10905;DHT22;5505;51.450;9.254;2022-09-21T13:46:54;14.40;99.90
10905;DHT22;5505;51.450;9.254;2022-09-21T13:49:52;14.40;99.90
10905;DHT22;5505;51.450;9.254;2022-09-21T13:52:44;14.40;99.90
10905;DHT22;5505;51.450;9.254;2022-09-21T13:55:34;14.50;99.90
10905;DHT22;5505;51.450;9.254;2022-09-21T13:58:25;15.30;99.90
10905;DHT22;5505;51.450;9.254;2022-09-21T14:01:16;14.50;99.90
10905;DHT22;5505;51.450;9.254;2022-09-21T14:04:24;14.40;99.90
10905;DHT22;5505;51.450;9.254;2022-09-21T14:07:12;14.40;99.90
10905;DHT22;5505;51.450;9.254;2022-09-21T14:10:01;14.80;99.90
10905;DHT22;5505;51.450;9.254;2022-09-21T14:12:49;14.30;99.90
10905;DHT22;5505;51.450;9.254;2022-09-21T14:15:38;14.30;99.90
10905;DHT22;5505;51.450;9.254;2022-09-21T14:18:43;14.30;99.90
10905;DHT22;5505;51.450;9.254;2022-09-21T14:21:32;14.30;99.90
10905;DHT22;5505;51.450;9.254;2022-09-21T14:24:20;14.30;99.90
10905;DHT22;5505;51.450;9.254;2022-09-21T14:27:14;14.20;99.90
10905;DHT22;5505;51.450;9.254;2022-09-21T14:30:04;14.90;99.90
10905;DHT22;5505;51.450;9.254;2022-09-21T14:33:02;14.20;99.90
10905;DHT22;5505;51.450;9.254;2022-09-21T14:35:50;14.30;99.90
10905;DHT22;5505;51.450;9.254;2022-09-21T14:38:44;14.30;99.90
10905;DHT22;5505;51.450;9.254;2022-09-21T14:41:38;14.30;99.90
10905;DHT22;5505;51.450;9.254;2022-09-21T14:44:28;14.30;99.90
10905;DHT22;5505;51.450;9.254;2022-09-21T14:47:37;14.40;99.90
10905;DHT22;5505;51.450;9.254;2022-09-21T14:50:33;14.40;99.90
10905;DHT22;5505;51.450;9.254;2022-09-21T14:56:57;14.40;99.90
10905;DHT22;5505;51.450;9.254;2022-09-21T14:59:55;14.40;99.90
10905;DHT22;5505;51.450;9.254;2022-09-21T15:02:47;14.40;99.90
10905;DHT22;5505;51.450;9.254;2022-09-21T15:05:38;14.20;99.90
10905;DHT22;5505;51.450;9.254;2022-09-21T15:08:41;14.40;99.90
10905;DHT22;5505;51.450;9.254;2022-09-21T15:11:58;14.40;99.90
10905;DHT22;5505;51.450;9.254;2022-09-21T15:14:47;14.30;99.90
10905;DHT22;5505;51.450;9.254;2022-09-21T15:17:50;14.20;99.90
10905;DHT22;5505;51.450;9.254;2022-09-21T15:20:37;14.30;99.90
10905;DHT22;5505;51.450;9.254;2022-09-21T15:23:24;12.40;99.90
10905;DHT22;5505;51.450;9.254;2022-09-21T15:26:15;14.20;99.90
10905;DHT22;5505;51.450;9.254;2022-09-21T15:29:05;14.30;99.90
